sensor_id;sensor_type;location;lat;lon;timestamp;pressure;altitude;pressure_sealevel;temperature;humidity
28004;BME280;15330;51.234;6.754;2023-02-21T00:01:08;101623.91;;;7.59;100.00
28004;BME280;15330;51.234;6.754;2023-02-21T00:03:52;101628.41;;;7.58;100.00
28004;BME280;15330;51.234;6.754;2023-02-21T00:06:36;101623.69;;;7.51;100.00
28004;BME280;15330;51.234;6.754;2023-02-21T00:09:20;101633.13;;;7.66;100.00
28004;BME280;15330;51.234;6.754;2023-02-21T00:12:04;101626.97;;;7.54;100.00
28004;BME280;15330;51.234;6.754;2023-02-21T00:14:48;101631.69;;;7.51;100.00
28004;BME280;15330;51.234;6.754;2023-02-21T00:17:32;101627.09;;;7.53;100.00
28004;BME280;15330;51.234;6.754;2023-02-21T00:20:16;101628.16;;;7.61;100.00
28004;BME280;15330;51.234;6.754;2023-02-21T00:23:00;101632.91;;;7.58;100.00
28004;BME280;15330;51.234;6.754;2023-02-21T00:25:44;101623.34;;;7.55;100.00
28004;BME280;15330;51.234;6.754;2023-02-21T00:28:27;101620.16;;;7.61;100.00
28004;BME280;15330;51.234;6.754;2023-02-21T00:31:11;101621.50;;;7.67;100.00
28004;BME280;15330;51.234;6.754;2023-02-21T00:33:55;101627.91;;;7.64;100.00
28004;BME280;15330;51.234;6.754;2023-02-21T00:36:39;101625.16;;;7.55;100.00
28004;BME280;15330;51.234;6.754;2023-02-21T00:39:23;101616.81;;;7.48;100.00
28004;BME280;15330;51.234;6.754;2023-02-21T00:42:07;101626.25;;;7.52;100.00
28004;BME280;15330;51.234;6.754;2023-02-21T00:44:51;101623.91;;;7.59;100.00
28004;BME280;15330;51.234;6.754;2023-02-21T00:47:35;101627.44;;;7.59;100.00
28004;BME280;15330;51.234;6.754;2023-02-21T00:50:19;101612.94;;;7.52;100.00
28004;BME280;15330;51.234;6.754;2023-02-21T00:53:03;101629.00;;;7.62;100.00
28004;BME280;15330;51.234;6.754;2023-02-21T00:55:47;101635.56;;;7.58;100.00
28004;BME280;15330;51.234;6.754;2023-02-21T00:58:31;101630.38;;;7.56;100.00
28004;BME280;15330;51.234;6.754;2023-02-21T01:01:15;101633.38;;;7.52;100.00
28004;BME280;15330;51.234;6.754;2023-02-21T01:03:59;101626.84;;;7.56;100.00
28004;BME280;15330;51.234;6.754;2023-02-21T01:06:43;101622.38;;;7.56;100.00
28004;BME280;15330;51.234;6.754;2023-02-21T01:09:27;101621.41;;;7.57;100.00
28004;BME280;15330;51.234;6.754;2023-02-21T01:12:11;101611.00;;;7.54;100.00
28004;BME280;15330;51.234;6.754;2023-02-21T01:14:55;101601.56;;;7.50;100.00
28004;BME280;15330;51.234;6.754;2023-02-21T01:17:39;101606.50;;;7.66;100.00
28004;BME280;15330;51.234;6.754;2023-02-21T01:20:23;101608.44;;;7.64;100.00
28004;BME280;15330;51.234;6.754;2023-02-21T01:23:07;101611.47;;;7.59;100.00
28004;BME280;15330;51.234;6.754;2023-02-21T01:25:51;101604.91;;;7.63;100.00
28004;BME280;15330;51.234;6.754;2023-02-21T01:28:35;101605.28;;;7.59;100.00
28004;BME280;15330;51.234;6.754;2023-02-21T01:31:19;101598.63;;;7.64;100.00
28004;BME280;15330;51.234;6.754;2023-02-21T01:34:03;101606.75;;;7.63;100.00
28004;BME280;15330;51.234;6.754;2023-02-21T01:36:47;101597.91;;;7.62;100.00
28004;BME280;15330;51.234;6.754;2023-02-21T01:39:31;101597.06;;;7.62;100.00
28004;BME280;15330;51.234;6.754;2023-02-21T01:42:15;101598.88;;;7.61;100.00
28004;BME280;15330;51.234;6.754;2023-02-21T01:48:01;101586.88;;;7.67;100.00
28004;BME280;15330;51.234;6.754;2023-02-21T01:50:45;101591.00;;;7.60;100.00
28004;BME280;15330;51.234;6.754;2023-02-21T01:53:29;101583.25;;;7.68;100.00
28004;BME280;15330;51.234;6.754;2023-02-21T01:56:13;101584.59;;;7.62;100.00
28004;BME280;15330;51.234;6.754;2023-02-21T01:58:59;101581.81;;;7.64;100.00
28004;BME280;15330;51.234;6.754;2023-02-21T02:01:56;101587.38;;;7.61;100.00
28004;BME280;15330;51.234;6.754;2023-02-21T02:04:43;101586.06;;;7.55;100.00
28004;BME280;15330;51.234;6.754;2023-02-21T02:07:28;101576.75;;;7.50;100.00
28004;BME280;15330;51.234;6.754;2023-02-21T02:10:12;101581.47;;;7.57;100.00
28004;BME280;15330;51.234;6.754;2023-02-21T02:14:07;101577.34;;;7.53;100.00
28004;BME280;15330;51.234;6.754;2023-02-21T02:16:24;101582.66;;;7.64;100.00
28004;BME280;15330;51.234;6.754;2023-02-21T02:19:00;101583.00;;;7.60;100.00
28004;BME280;15330;51.234;6.754;2023-02-21T02:27:21;101579.50;;;7.59;100.00
28004;BME280;15330;51.234;6.754;2023-02-21T02:30:02;101582.00;;;7.72;100.00
28004;BME280;15330;51.234;6.754;2023-02-21T02:38:18;101573.66;;;7.77;100.00
28004;BME280;15330;51.234;6.754;2023-02-21T02:45:46;101568.84;;;7.59;100.00
28004;BME280;15330;51.234;6.754;2023-02-21T02:48:17;101566.28;;;7.69;100.00
28004;BME280;15330;51.234;6.754;2023-02-21T02:50:47;101571.25;;;7.73;100.00
28004;BME280;15330;51.234;6.754;2023-02-21T02:53:16;101560.00;;;7.70;100.00
28004;BME280;15330;51.234;6.754;2023-02-21T02:55:59;101563.50;;;7.70;100.00
28004;BME280;15330;51.234;6.754;2023-02-21T02:58:28;101555.06;;;7.65;100.00
28004;BME280;15330;51.234;6.754;2023-02-21T03:06:29;101556.88;;;7.65;100.00
28004;BME280;15330;51.234;6.754;2023-02-21T03:09:11;101554.72;;;7.48;100.00
28004;BME280;15330;51.234;6.754;2023-02-21T03:11:59;101551.09;;;7.49;100.00
28004;BME280;15330;51.234;6.754;2023-02-21T03:14:39;101545.03;;;7.58;100.00
28004;BME280;15330;51.234;6.754;2023-02-21T03:17:11;101543.94;;;7.60;100.00
28004;BME280;15330;51.234;6.754;2023-02-21T03:19:41;101553.91;;;7.47;100.00
28004;BME280;15330;51.234;6.754;2023-02-21T03:22:12;101547.56;;;7.59;100.00
28004;BME280;15330;51.234;6.754;2023-02-21T03:24:42;101547.81;;;7.56;100.00
28004;BME280;15330;51.234;6.754;2023-02-21T03:27:09;101545.16;;;7.56;100.00
28004;BME280;15330;51.234;6.754;2023-02-21T03:29:36;101546.22;;;7.65;100.00
28004;BME280;15330;51.234;6.754;2023-02-21T03:32:14;101549.00;;;7.63;100.00
28004;BME280;15330;51.234;6.754;2023-02-21T03:34:42;101546.78;;;7.68;100.00
28004;BME280;15330;51.234;6.754;2023-02-21T03:39:53;101532.34;;;7.50;100.00
28004;BME280;15330;51.234;6.754;2023-02-21T03:42:19;101543.06;;;7.60;100.00
28004;BME280;15330;51.234;6.754;2023-02-21T03:44:44;101545.16;;;7.56;100.00
28004;BME280;15330;51.234;6.754;2023-02-21T03:47:10;101552.63;;;7.62;100.00
28004;BME280;15330;51.234;6.754;2023-02-21T03:49:35;101562.22;;;7.54;100.00
28004;BME280;15330;51.234;6.754;2023-02-21T03:52:00;101566.19;;;7.59;100.00
28004;BME280;15330;51.234;6.754;2023-02-21T03:54:26;101558.13;;;7.50;100.00
28004;BME280;15330;51.234;6.754;2023-02-21T03:56:51;101554.84;;;7.57;100.00
28004;BME280;15330;51.234;6.754;2023-02-21T03:59:16;101556.91;;;7.54;100.00
28004;BME280;15330;51.234;6.754;2023-02-21T04:01:42;101557.75;;;7.54;100.00
28004;BME280;15330;51.234;6.754;2023-02-21T04:04:08;101555.84;;;7.45;100.00
28004;BME280;15330;51.234;6.754;2023-02-21T04:06:34;101552.91;;;7.48;100.00
28004;BME280;15330;51.234;6.754;2023-02-21T04:08:59;101547.50;;;7.38;100.00
28004;BME280;15330;51.234;6.754;2023-02-21T04:11:24;101550.00;;;7.51;100.00
28004;BME280;15330;51.234;6.754;2023-02-21T04:13:50;101556.81;;;7.44;100.00
28004;BME280;15330;51.234;6.754;2023-02-21T04:16:16;101544.34;;;7.45;100.00
28004;BME280;15330;51.234;6.754;2023-02-21T04:18:41;101548.47;;;7.37;100.00
28004;BME280;15330;51.234;6.754;2023-02-21T04:21:06;101547.38;;;7.40;100.00
28004;BME280;15330;51.234;6.754;2023-02-21T04:23:32;101540.00;;;7.44;100.00
28004;BME280;15330;51.234;6.754;2023-02-21T04:25:57;101542.03;;;7.51;100.00
28004;BME280;15330;51.234;6.754;2023-02-21T04:28:22;101537.41;;;7.53;100.00
28004;BME280;15330;51.234;6.754;2023-02-21T04:30:48;101546.50;;;7.51;100.00
28004;BME280;15330;51.234;6.754;2023-02-21T04:33:13;101537.75;;;7.60;100.00
28004;BME280;15330;51.234;6.754;2023-02-21T04:35:39;101544.34;;;7.45;100.00
28004;BME280;15330;51.234;6.754;2023-02-21T04:38:04;101533.53;;;7.57;100.00
28004;BME280;15330;51.234;6.754;2023-02-21T04:40:29;101537.53;;;7.52;100.00
28004;BME280;15330;51.234;6.754;2023-02-21T04:42:55;101542.22;;;7.59;100.00
28004;BME280;15330;51.234;6.754;2023-02-21T04:45:20;101539.44;;;7.61;100.00
28004;BME280;15330;51.234;6.754;2023-02-21T04:47:46;101544.69;;;7.51;100.00
28004;BME280;15330;51.234;6.754;2023-02-21T04:50:11;101545.63;;;7.61;100.00
28004;BME280;15330;51.234;6.754;2023-02-21T04:52:37;101534.88;;;7.52;100.00
28004;BME280;15330;51.234;6.754;2023-02-21T04:55:05;101531.25;;;7.53;100.00
28004;BME280;15330;51.234;6.754;2023-02-21T04:57:31;101537.75;;;7.60;100.00
28004;BME280;15330;51.234;6.754;2023-02-21T04:59:57;101534.00;;;7.62;100.00
28004;BME280;15330;51.234;6.754;2023-02-21T05:02:23;101538.13;;;7.66;100.00
28004;BME280;15330;51.234;6.754;2023-02-21T05:04:49;101534.41;;;7.58;100.00
28004;BME280;15330;51.234;6.754;2023-02-21T05:07:14;101540.09;;;7.53;100.00
28004;BME280;15330;51.234;6.754;2023-02-21T05:09:39;101539.00;;;7.56;100.00
28004;BME280;15330;51.234;6.754;2023-02-21T05:12:05;101542.09;;;7.61;100.00
28004;BME280;15330;51.234;6.754;2023-02-21T05:14:36;101535.50;;;7.55;100.00
28004;BME280;15330;51.234;6.754;2023-02-21T05:17:02;101541.56;;;7.46;100.00
28004;BME280;15330;51.234;6.754;2023-02-21T05:19:27;101543.38;;;7.46;100.00
28004;BME280;15330;51.234;6.754;2023-02-21T05:21:55;101547.34;;;7.51;100.00
28004;BME280;15330;51.234;6.754;2023-02-21T05:24:21;101544.59;;;7.42;100.00
28004;BME280;15330;51.234;6.754;2023-02-21T05:26:46;101548.31;;;7.50;100.00
28004;BME280;15330;51.234;6.754;2023-02-21T05:29:12;101544.56;;;7.53;100.00
28004;BME280;15330;51.234;6.754;2023-02-21T05:31:37;101544.94;;;7.48;100.00
28004;BME280;15330;51.234;6.754;2023-02-21T05:34:02;101554.63;;;7.38;100.00
28004;BME280;15330;51.234;6.754;2023-02-21T05:36:28;101557.16;;;7.51;100.00
28004;BME280;15330;51.234;6.754;2023-02-21T05:38:54;101558.72;;;7.53;100.00
28004;BME280;15330;51.234;6.754;2023-02-21T05:41:20;101555.09;;;7.54;100.00
28004;BME280;15330;51.234;6.754;2023-02-21T05:43:47;101545.03;;;7.58;100.00
28004;BME280;15330;51.234;6.754;2023-02-21T05:46:23;101542.50;;;7.56;100.00
28004;BME280;15330;51.234;6.754;2023-02-21T05:48:49;101555.22;;;7.53;100.00
28004;BME280;15330;51.234;6.754;2023-02-21T05:51:16;101549.91;;;7.42;100.00
28004;BME280;15330;51.234;6.754;2023-02-21T05:53:42;101550.13;;;7.50;100.00
28004;BME280;15330;51.234;6.754;2023-02-21T05:56:07;101551.72;;;7.41;100.00
28004;BME280;15330;51.234;6.754;2023-02-21T05:58:33;101549.16;;;7.51;100.00
28004;BME280;15330;51.234;6.754;2023-02-21T06:01:01;101541.91;;;8.37;100.00
28004;BME280;15330;51.234;6.754;2023-02-21T06:03:27;101543.22;;;8.11;100.00
28004;BME280;15330;51.234;6.754;2023-02-21T06:05:52;101545.69;;;8.24;100.00
28004;BME280;15330;51.234;6.754;2023-02-21T06:08:17;101543.50;;;8.29;100.00
28004;BME280;15330;51.234;6.754;2023-02-21T06:10:43;101538.34;;;7.95;100.00
28004;BME280;15330;51.234;6.754;2023-02-21T06:13:08;101532.59;;;7.79;100.00
28004;BME280;15330;51.234;6.754;2023-02-21T06:15:33;101534.97;;;7.61;100.00
28004;BME280;15330;51.234;6.754;2023-02-21T06:17:59;101539.81;;;7.67;100.00
28004;BME280;15330;51.234;6.754;2023-02-21T06:20:24;101537.31;;;7.55;100.00
28004;BME280;15330;51.234;6.754;2023-02-21T06:22:49;101538.16;;;7.55;100.00
28004;BME280;15330;51.234;6.754;2023-02-21T06:25:15;101536.91;;;7.59;100.00
28004;BME280;15330;51.234;6.754;2023-02-21T06:27:41;101543.56;;;7.65;100.00
28004;BME280;15330;51.234;6.754;2023-02-21T06:30:08;101520.13;;;7.48;100.00
28004;BME280;15330;51.234;6.754;2023-02-21T06:32:34;101527.38;;;7.57;100.00
28004;BME280;15330;51.234;6.754;2023-02-21T06:34:59;101534.16;;;7.50;100.00
28004;BME280;15330;51.234;6.754;2023-02-21T06:37:24;101542.03;;;7.51;100.00
28004;BME280;15330;51.234;6.754;2023-02-21T06:39:50;101536.38;;;7.45;100.00
28004;BME280;15330;51.234;6.754;2023-02-21T06:42:16;101537.34;;;7.44;100.00
28004;BME280;15330;51.234;6.754;2023-02-21T06:44:46;101546.53;;;7.40;100.00
28004;BME280;15330;51.234;6.754;2023-02-21T06:47:12;101545.13;;;7.24;100.00
28004;BME280;15330;51.234;6.754;2023-02-21T06:49:37;101545.47;;;7.31;100.00
28004;BME280;15330;51.234;6.754;2023-02-21T06:52:03;101540.88;;;7.22;100.00
28004;BME280;15330;51.234;6.754;2023-02-21T06:54:28;101546.22;;;7.22;100.00
28004;BME280;15330;51.234;6.754;2023-02-21T06:56:55;101545.38;;;7.10;100.00
28004;BME280;15330;51.234;6.754;2023-02-21T06:59:20;101540.78;;;7.12;100.00
28004;BME280;15330;51.234;6.754;2023-02-21T07:01:46;101544.28;;;7.24;100.00
28004;BME280;15330;51.234;6.754;2023-02-21T07:04:11;101540.06;;;7.10;100.00
28004;BME280;15330;51.234;6.754;2023-02-21T07:06:37;101548.38;;;7.17;100.00
28004;BME280;15330;51.234;6.754;2023-02-21T07:09:03;101553.13;;;7.13;100.00
28004;BME280;15330;51.234;6.754;2023-02-21T07:11:30;101549.22;;;7.17;100.00
28004;BME280;15330;51.234;6.754;2023-02-21T07:13:57;101548.53;;;7.15;100.00
28004;BME280;15330;51.234;6.754;2023-02-21T07:16:23;101549.09;;;7.19;100.00
28004;BME280;15330;51.234;6.754;2023-02-21T07:18:49;101551.41;;;7.23;100.00
28004;BME280;15330;51.234;6.754;2023-02-21T07:21:14;101549.00;;;7.09;100.00
28004;BME280;15330;51.234;6.754;2023-02-21T07:23:42;101553.00;;;7.15;100.00
28004;BME280;15330;51.234;6.754;2023-02-21T07:26:07;101554.94;;;7.13;100.00
28004;BME280;15330;51.234;6.754;2023-02-21T07:28:33;101556.97;;;7.09;100.00
28004;BME280;15330;51.234;6.754;2023-02-21T07:30:58;101550.94;;;7.07;100.00
28004;BME280;15330;51.234;6.754;2023-02-21T07:33:24;101560.25;;;7.02;100.00
28004;BME280;15330;51.234;6.754;2023-02-21T07:35:49;101555.66;;;7.04;100.00
28004;BME280;15330;51.234;6.754;2023-02-21T07:38:22;101561.94;;;7.14;100.00
28004;BME280;15330;51.234;6.754;2023-02-21T07:40:48;101560.78;;;7.50;100.00
28004;BME280;15330;51.234;6.754;2023-02-21T07:43:14;101561.91;;;7.36;100.00
28004;BME280;15330;51.234;6.754;2023-02-21T07:45:39;101574.72;;;7.31;100.00
28004;BME280;15330;51.234;6.754;2023-02-21T07:48:05;101566.28;;;7.37;100.00
28004;BME280;15330;51.234;6.754;2023-02-21T07:50:30;101568.03;;;7.48;100.00
28004;BME280;15330;51.234;6.754;2023-02-21T07:52:55;101569.63;;;7.39;100.00
28004;BME280;15330;51.234;6.754;2023-02-21T07:55:21;101570.75;;;7.36;100.00
28004;BME280;15330;51.234;6.754;2023-02-21T07:57:46;101567.34;;;7.34;100.00
28004;BME280;15330;51.234;6.754;2023-02-21T08:00:12;101569.59;;;7.50;100.00
28004;BME280;15330;51.234;6.754;2023-02-21T08:02:38;101575.47;;;7.33;100.00
28004;BME280;15330;51.234;6.754;2023-02-21T08:05:06;101575.47;;;7.22;100.00
28004;BME280;15330;51.234;6.754;2023-02-21T08:07:31;101567.72;;;7.19;100.00
28004;BME280;15330;51.234;6.754;2023-02-21T08:09:57;101570.75;;;7.25;100.00
28004;BME280;15330;51.234;6.754;2023-02-21T08:12:22;101573.06;;;7.19;100.00
28004;BME280;15330;51.234;6.754;2023-02-21T08:14:48;101578.38;;;7.30;100.00
28004;BME280;15330;51.234;6.754;2023-02-21T08:17:13;101585.03;;;7.13;100.00
28004;BME280;15330;51.234;6.754;2023-02-21T08:19:39;101575.34;;;7.23;100.00
28004;BME280;15330;51.234;6.754;2023-02-21T08:22:04;101567.94;;;7.27;100.00
28004;BME280;15330;51.234;6.754;2023-02-21T08:24:30;101568.81;;;7.27;100.00
28004;BME280;15330;51.234;6.754;2023-02-21T08:26:55;101569.28;;;7.32;100.00
28004;BME280;15330;51.234;6.754;2023-02-21T08:29:20;101577.41;;;7.31;100.00
28004;BME280;15330;51.234;6.754;2023-02-21T08:31:46;101570.25;;;7.31;100.00
28004;BME280;15330;51.234;6.754;2023-02-21T08:34:12;101570.03;;;7.78;100.00
28004;BME280;15330;51.234;6.754;2023-02-21T08:36:40;101565.25;;;7.49;100.00
28004;BME280;15330;51.234;6.754;2023-02-21T08:39:07;101573.13;;;7.40;100.00
28004;BME280;15330;51.234;6.754;2023-02-21T08:41:38;101577.25;;;7.44;100.00
28004;BME280;15330;51.234;6.754;2023-02-21T08:44:05;101579.44;;;7.38;100.00
28004;BME280;15330;51.234;6.754;2023-02-21T08:46:31;101571.63;;;7.26;100.00
28004;BME280;15330;51.234;6.754;2023-02-21T08:48:57;101574.28;;;7.26;100.00
28004;BME280;15330;51.234;6.754;2023-02-21T08:51:26;101564.00;;;7.21;100.00
28004;BME280;15330;51.234;6.754;2023-02-21T08:53:52;101566.75;;;7.31;100.00
28004;BME280;15330;51.234;6.754;2023-02-21T08:56:21;101564.09;;;7.31;100.00
28004;BME280;15330;51.234;6.754;2023-02-21T08:58:47;101561.94;;;7.25;100.00
28004;BME280;15330;51.234;6.754;2023-02-21T09:01:13;101559.97;;;7.27;100.00
28004;BME280;15330;51.234;6.754;2023-02-21T09:03:38;101567.13;;;7.26;100.00
28004;BME280;15330;51.234;6.754;2023-02-21T09:06:04;101556.50;;;7.26;100.00
28004;BME280;15330;51.234;6.754;2023-02-21T09:08:30;101555.88;;;7.34;100.00
28004;BME280;15330;51.234;6.754;2023-02-21T09:10:56;101550.88;;;7.41;100.00
28004;BME280;15330;51.234;6.754;2023-02-21T09:13:28;101546.91;;;7.46;100.00
28004;BME280;15330;51.234;6.754;2023-02-21T09:15:54;101554.59;;;7.49;100.00
28004;BME280;15330;51.234;6.754;2023-02-21T09:18:20;101548.59;;;7.47;100.00
28004;BME280;15330;51.234;6.754;2023-02-21T09:20:45;101554.97;;;7.56;100.00
28004;BME280;15330;51.234;6.754;2023-02-21T09:23:20;101554.47;;;7.51;100.00
28004;BME280;15330;51.234;6.754;2023-02-21T09:25:46;101547.25;;;7.42;100.00
28004;BME280;15330;51.234;6.754;2023-02-21T09:28:12;101549.66;;;7.56;100.00
28004;BME280;15330;51.234;6.754;2023-02-21T09:30:38;101544.47;;;7.43;100.00
28004;BME280;15330;51.234;6.754;2023-02-21T09:33:03;101545.38;;;7.64;100.00
28004;BME280;15330;51.234;6.754;2023-02-21T09:35:29;101549.47;;;7.68;100.00
28004;BME280;15330;51.234;6.754;2023-02-21T09:37:56;101554.38;;;7.52;100.00
28004;BME280;15330;51.234;6.754;2023-02-21T09:43:28;101539.72;;;7.58;100.00
28004;BME280;15330;51.234;6.754;2023-02-21T09:45:57;101544.41;;;7.65;100.00
28004;BME280;15330;51.234;6.754;2023-02-21T09:48:23;101541.09;;;7.73;100.00
28004;BME280;15330;51.234;6.754;2023-02-21T09:50:55;101541.56;;;7.46;100.00
28004;BME280;15330;51.234;6.754;2023-02-21T09:53:25;101543.09;;;7.49;100.00
28004;BME280;15330;51.234;6.754;2023-02-21T09:55:55;101541.16;;;7.51;100.00
28004;BME280;15330;51.234;6.754;2023-02-21T09:58:21;101541.28;;;7.49;100.00
28004;BME280;15330;51.234;6.754;2023-02-21T10:00:47;101537.88;;;7.58;100.00
28004;BME280;15330;51.234;6.754;2023-02-21T10:03:44;101541.34;;;7.70;100.00
28004;BME280;15330;51.234;6.754;2023-02-21T10:06:45;101532.81;;;7.87;100.00
28004;BME280;15330;51.234;6.754;2023-02-21T10:09:20;101534.44;;;7.79;100.00
28004;BME280;15330;51.234;6.754;2023-02-21T10:12:14;101535.56;;;7.65;100.00
28004;BME280;15330;51.234;6.754;2023-02-21T10:17:37;101541.22;;;7.71;100.00
28004;BME280;15330;51.234;6.754;2023-02-21T10:20:13;101539.38;;;7.83;100.00
28004;BME280;15330;51.234;6.754;2023-02-21T10:22:42;101542.03;;;7.83;100.00
28004;BME280;15330;51.234;6.754;2023-02-21T10:25:24;101538.41;;;7.84;100.00
28004;BME280;15330;51.234;6.754;2023-02-21T10:27:53;101551.72;;;7.84;100.00
28004;BME280;15330;51.234;6.754;2023-02-21T10:30:26;101541.81;;;7.75;100.00
28004;BME280;15330;51.234;6.754;2023-02-21T10:32:54;101542.44;;;7.79;100.00
28004;BME280;15330;51.234;6.754;2023-02-21T10:35:19;101541.19;;;8.35;100.00
28004;BME280;15330;51.234;6.754;2023-02-21T10:37:48;101543.88;;;8.24;100.00
28004;BME280;15330;51.234;6.754;2023-02-21T10:43:01;101542.78;;;8.48;100.00
28004;BME280;15330;51.234;6.754;2023-02-21T10:45:40;101532.91;;;8.18;100.00
28004;BME280;15330;51.234;6.754;2023-02-21T10:48:08;101535.22;;;8.11;100.00
28004;BME280;15330;51.234;6.754;2023-02-21T10:50:44;101538.53;;;8.24;100.00
28004;BME280;15330;51.234;6.754;2023-02-21T10:56:06;101532.50;;;8.22;100.00
28004;BME280;15330;51.234;6.754;2023-02-21T10:58:34;101537.94;;;8.21;100.00
28004;BME280;15330;51.234;6.754;2023-02-21T11:03:48;101540.91;;;8.18;100.00
28004;BME280;15330;51.234;6.754;2023-02-21T11:08:53;101526.25;;;8.12;100.00
28004;BME280;15330;51.234;6.754;2023-02-21T11:14:21;101531.16;;;8.28;100.00
28004;BME280;15330;51.234;6.754;2023-02-21T11:17:20;101532.72;;;8.30;100.00
28004;BME280;15330;51.234;6.754;2023-02-21T11:19:56;101528.72;;;8.25;100.00
28004;BME280;15330;51.234;6.754;2023-02-21T11:22:37;101525.22;;;8.24;100.00
28004;BME280;15330;51.234;6.754;2023-02-21T11:27:44;101522.69;;;8.23;100.00
28004;BME280;15330;51.234;6.754;2023-02-21T11:30:21;101517.09;;;8.26;100.00
28004;BME280;15330;51.234;6.754;2023-02-21T11:32:55;101511.91;;;8.24;100.00
28004;BME280;15330;51.234;6.754;2023-02-21T11:35:25;101508.72;;;8.30;100.00
28004;BME280;15330;51.234;6.754;2023-02-21T11:40:41;101501.78;;;7.97;100.00
28004;BME280;15330;51.234;6.754;2023-02-21T11:43:27;101499.59;;;8.12;100.00
28004;BME280;15330;51.234;6.754;2023-02-21T11:46:16;101494.03;;;8.15;100.00
28004;BME280;15330;51.234;6.754;2023-02-21T11:49:51;101496.94;;;8.12;100.00
28004;BME280;15330;51.234;6.754;2023-02-21T11:52:24;101485.31;;;7.92;100.00
28004;BME280;15330;51.234;6.754;2023-02-21T11:54:50;101482.16;;;8.19;100.00
28004;BME280;15330;51.234;6.754;2023-02-21T11:57:19;101480.13;;;8.32;100.00
28004;BME280;15330;51.234;6.754;2023-02-21T11:59:58;101483.69;;;8.22;100.00
28004;BME280;15330;51.234;6.754;2023-02-21T12:18:21;101461.38;;;8.23;100.00
28004;BME280;15330;51.234;6.754;2023-02-21T12:21:29;101452.63;;;8.32;100.00
28004;BME280;15330;51.234;6.754;2023-02-21T12:24:16;101450.09;;;8.30;100.00
28004;BME280;15330;51.234;6.754;2023-02-21T12:26:55;101443.97;;;8.39;100.00
28004;BME280;15330;51.234;6.754;2023-02-21T12:46:46;101430.56;;;8.30;100.00
28004;BME280;15330;51.234;6.754;2023-02-21T12:51:24;101422.50;;;8.41;100.00
28004;BME280;15330;51.234;6.754;2023-02-21T12:53:55;101417.22;;;8.51;100.00
28004;BME280;15330;51.234;6.754;2023-02-21T13:01:37;101425.75;;;8.44;100.00
28004;BME280;15330;51.234;6.754;2023-02-21T13:09:42;101419.06;;;7.99;100.00
28004;BME280;15330;51.234;6.754;2023-02-21T13:12:18;101420.88;;;7.78;100.00
28004;BME280;15330;51.234;6.754;2023-02-21T13:14:59;101417.00;;;8.12;100.00
28004;BME280;15330;51.234;6.754;2023-02-21T13:17:26;101413.69;;;8.40;100.00
28004;BME280;15330;51.234;6.754;2023-02-21T13:20:00;101413.97;;;8.47;100.00
28004;BME280;15330;51.234;6.754;2023-02-21T13:26:39;101404.59;;;8.62;100.00
28004;BME280;15330;51.234;6.754;2023-02-21T13:29:31;101405.97;;;8.47;100.00
28004;BME280;15330;51.234;6.754;2023-02-21T13:32:07;101403.06;;;8.60;100.00
28004;BME280;15330;51.234;6.754;2023-02-21T13:35:09;101397.47;;;8.72;100.00
28004;BME280;15330;51.234;6.754;2023-02-21T13:37:31;101392.31;;;8.71;100.00
28004;BME280;15330;51.234;6.754;2023-02-21T13:40:03;101388.06;;;8.68;100.00
28004;BME280;15330;51.234;6.754;2023-02-21T13:42:33;101383.31;;;8.72;100.00
28004;BME280;15330;51.234;6.754;2023-02-21T13:45:18;101388.50;;;8.73;100.00
28004;BME280;15330;51.234;6.754;2023-02-21T13:53:16;101372.78;;;8.70;100.00
28004;BME280;15330;51.234;6.754;2023-02-21T14:03:42;101367.31;;;8.81;100.00
28004;BME280;15330;51.234;6.754;2023-02-21T14:08:48;101369.44;;;8.97;100.00
28004;BME280;15330;51.234;6.754;2023-02-21T14:11:25;101360.19;;;8.92;100.00
28004;BME280;15330;51.234;6.754;2023-02-21T14:14:02;101358.31;;;8.82;100.00
28004;BME280;15330;51.234;6.754;2023-02-21T14:16:49;101351.19;;;8.93;100.00
28004;BME280;15330;51.234;6.754;2023-02-21T14:21:59;101354.41;;;8.87;100.00
28004;BME280;15330;51.234;6.754;2023-02-21T14:24:30;101348.66;;;8.91;100.00
28004;BME280;15330;51.234;6.754;2023-02-21T14:32:44;101344.13;;;8.72;100.00
28004;BME280;15330;51.234;6.754;2023-02-21T14:35:24;101344.56;;;8.87;100.00
28004;BME280;15330;51.234;6.754;2023-02-21T14:37:58;101335.03;;;8.94;100.00
28004;BME280;15330;51.234;6.754;2023-02-21T14:43:35;101334.03;;;8.95;100.00
28004;BME280;15330;51.234;6.754;2023-02-21T15:12:47;101319.53;;;9.36;100.00
28004;BME280;15330;51.234;6.754;2023-02-21T15:15:19;101317.59;;;9.38;100.00
28004;BME280;15330;51.234;6.754;2023-02-21T15:18:00;101315.88;;;9.47;100.00
28004;BME280;15330;51.234;6.754;2023-02-21T15:20:26;101311.97;;;9.41;100.00
28004;BME280;15330;51.234;6.754;2023-02-21T15:23:00;101316.03;;;9.26;100.00
28004;BME280;15330;51.234;6.754;2023-02-21T15:25:26;101312.53;;;9.26;100.00
28004;BME280;15330;51.234;6.754;2023-02-21T15:27:55;101309.47;;;9.20;100.00
28004;BME280;15330;51.234;6.754;2023-02-21T15:30:30;101307.22;;;9.16;100.00
28004;BME280;15330;51.234;6.754;2023-02-21T15:33:10;101312.13;;;9.20;100.00
28004;BME280;15330;51.234;6.754;2023-02-21T15:35:41;101305.41;;;9.07;100.00
28004;BME280;15330;51.234;6.754;2023-02-21T15:38:38;101297.97;;;9.10;100.00
28004;BME280;15330;51.234;6.754;2023-02-21T15:41:08;101299.50;;;9.03;100.00
28004;BME280;15330;51.234;6.754;2023-02-21T15:43:44;101300.69;;;8.41;100.00
28004;BME280;15330;51.234;6.754;2023-02-21T15:46:16;101306.09;;;8.61;100.00
28004;BME280;15330;51.234;6.754;2023-02-21T15:48:44;101297.13;;;8.81;100.00
28004;BME280;15330;51.234;6.754;2023-02-21T15:51:11;101300.63;;;9.01;100.00
28004;BME280;15330;51.234;6.754;2023-02-21T15:53:37;101297.53;;;8.96;100.00